Time;durP1;ratioP1;P1;durP2;ratioP2;P2;SDS_P1;SDS_P2;PMS_P1;PMS_P2;Temp;Humidity;BMP_temperature;BMP_pressure;BME280_temperature;BME280_humidity;BME280_pressure;Samples;Min_cycle;Max_cycle;Signal;HPM_P1;HPM_P2
2023/09/19 00:00:22;;;;;;;3.87;2.73;;;20.80;99.90;;;;;;5069461;28;20492;-81
2023/09/19 00:02:53;;;;;;;5.20;4.30;;;20.80;99.90;;;;;;5071832;28;20960;-84
2023/09/19 00:05:28;;;;;;;3.90;2.83;;;20.80;99.90;;;;;;5063529;28;20475;-82
2023/09/19 00:07:59;;;;;;;4.30;3.50;;;20.80;99.90;;;;;;5056577;28;20511;-84
2023/09/19 00:10:30;;;;;;;2.50;2.30;;;20.80;99.90;;;;;;5072907;28;20474;-84
2023/09/19 00:13:00;;;;;;;5.07;2.77;;;20.80;99.90;;;;;;5072036;28;20475;-84
2023/09/19 00:15:30;;;;;;;4.57;2.67;;;20.80;99.90;;;;;;5047092;28;20463;-81
2023/09/19 00:17:57;;;;;;;3.87;2.63;;;20.80;99.90;;;;;;5071107;28;20469;-84
2023/09/19 00:20:24;;;;;;;3.93;3.63;;;20.80;99.90;;;;;;5071735;28;20486;-83
2023/09/19 00:22:53;;;;;;;3.33;2.13;;;20.80;99.90;;;;;;5071407;28;20478;-82
2023/09/19 00:25:20;;;;;;;3.23;2.93;;;20.70;99.90;;;;;;5072403;28;20527;-83
2023/09/19 00:28:01;;;;;;;7.20;2.93;;;20.70;99.90;;;;;;5072464;28;20477;-81
2023/09/19 00:30:29;;;;;;;6.40;4.90;;;20.70;99.90;;;;;;5072509;28;20477;-80
2023/09/19 00:32:56;;;;;;;4.60;2.93;;;20.70;99.90;;;;;;5071786;28;20470;-80
2023/09/19 00:35:25;;;;;;;10.03;6.70;;;20.70;99.90;;;;;;5072027;28;20558;-81
2023/09/19 00:37:53;;;;;;;15.27;12.90;;;20.70;99.90;;;;;;5072243;28;20531;-83
2023/09/19 00:40:23;;;;;;;8.00;7.30;;;20.70;99.90;;;;;;5072671;28;20520;-83
2023/09/19 00:42:50;;;;;;;7.23;2.80;;;20.70;99.90;;;;;;5072243;28;20474;-84
2023/09/19 00:45:20;;;;;;;8.10;5.87;;;20.70;99.90;;;;;;5072308;28;20462;-83
2023/09/19 00:47:50;;;;;;;7.83;5.80;;;20.60;99.90;;;;;;5072220;28;20458;-83
2023/09/19 00:50:26;;;;;;;4.17;3.77;;;20.60;99.90;;;;;;5072104;28;20952;-82
2023/09/19 00:52:57;;;;;;;4.30;3.90;;;20.60;99.90;;;;;;5071587;28;20473;-81
2023/09/19 00:55:25;;;;;;;5.60;4.93;;;20.50;99.90;;;;;;5072352;28;20474;-84
2023/09/19 00:57:56;;;;;;;3.60;3.30;;;20.50;99.90;;;;;;5072113;28;20539;-83
2023/09/19 01:00:25;;;;;;;3.23;2.90;;;20.50;99.90;;;;;;5069032;28;20474;-83
2023/09/19 01:02:54;;;;;;;3.27;2.97;;;20.40;99.90;;;;;;5071934;28;20806;-84
2023/09/19 01:05:21;;;;;;;3.67;2.60;;;20.40;99.90;;;;;;5071943;28;20467;-82
2023/09/19 01:07:48;;;;;;;7.37;4.73;;;20.40;99.90;;;;;;5072281;28;20466;-81
2023/09/19 01:10:20;;;;;;;3.77;2.17;;;20.40;99.90;;;;;;5071667;28;20462;-81
2023/09/19 01:12:56;;;;;;;3.90;2.70;;;20.40;99.90;;;;;;5071824;28;20976;-82
2023/09/19 01:15:33;;;;;;;2.97;2.70;;;20.40;99.90;;;;;;5074899;28;20477;-83
2023/09/19 01:18:12;;;;;;;5.37;2.67;;;20.40;99.90;;;;;;5034102;28;20467;-81
2023/09/19 01:20:47;;;;;;;3.40;3.10;;;20.40;99.90;;;;;;5052262;28;20470;-81
2023/09/19 01:23:27;;;;;;;4.50;4.10;;;20.40;99.90;;;;;;5070714;28;20469;-84
2023/09/19 01:26:17;;;;;;;6.53;3.60;;;20.40;99.90;;;;;;5064839;28;20915;-84
2023/09/19 01:29:08;;;;;;;3.27;2.70;;;20.40;99.90;;;;;;5066674;28;20951;-82
2023/09/19 01:31:40;;;;;;;3.70;2.50;;;20.40;99.90;;;;;;5075793;28;20508;-81
2023/09/19 01:34:08;;;;;;;3.10;2.80;;;20.40;99.90;;;;;;5075149;28;20458;-81
2023/09/19 01:36:38;;;;;;;3.57;3.10;;;20.40;99.90;;;;;;5075285;28;20828;-84
2023/09/19 01:39:10;;;;;;;4.10;2.60;;;20.40;99.90;;;;;;5075400;28;20485;-81
2023/09/19 01:41:55;;;;;;;3.80;3.30;;;20.40;99.90;;;;;;5068385;28;21018;-81
2023/09/19 01:44:30;;;;;;;2.33;2.13;;;20.30;99.90;;;;;;5241524;22;20429;-85
2023/09/19 01:47:02;;;;;;;3.93;2.03;;;20.40;99.90;;;;;;5034785;28;20467;-84
2023/09/19 01:49:43;;;;;;;6.07;3.50;;;20.40;99.90;;;;;;5035745;28;20503;-84
2023/09/19 01:52:16;;;;;;;21.93;16.53;;;20.40;99.90;;;;;;5035668;28;20468;-84
2023/09/19 01:54:50;;;;;;;9.53;5.40;;;20.40;99.90;;;;;;5035029;28;20927;-84
2023/09/19 01:57:29;;;;;;;3.17;2.87;;;20.40;99.90;;;;;;5034393;28;20551;-82
2023/09/19 02:00:06;;;;;;;4.37;3.00;;;20.40;99.90;;;;;;5035914;28;20460;-81
2023/09/19 02:02:37;;;;;;;5.10;3.60;;;20.50;99.90;;;;;;5034497;28;20464;-84
2023/09/19 02:05:06;;;;;;;3.30;2.67;;;20.40;99.90;;;;;;5035282;28;20478;-81
2023/09/19 02:07:33;;;;;;;3.20;2.83;;;20.40;99.90;;;;;;5022210;28;20933;-84
2023/09/19 02:10:00;;;;;;;3.57;2.50;;;20.40;99.90;;;;;;5014857;28;20469;-81
2023/09/19 02:12:27;;;;;;;3.97;3.03;;;20.40;99.90;;;;;;5015470;28;20851;-84
2023/09/19 02:14:54;;;;;;;5.27;4.10;;;20.40;99.90;;;;;;5004904;28;20559;-81
2023/09/19 02:17:21;;;;;;;2.50;2.30;;;20.40;99.90;;;;;;5014619;28;20469;-81
2023/09/19 02:19:49;;;;;;;2.90;2.60;;;20.40;99.90;;;;;;5015510;28;21010;-81
2023/09/19 02:22:16;;;;;;;3.30;3.00;;;20.40;99.90;;;;;;5021377;28;20465;-84
2023/09/19 02:24:47;;;;;;;5.67;5.03;;;20.40;99.90;;;;;;5034061;28;20477;-84
2023/09/19 02:27:18;;;;;;;3.90;3.50;;;20.40;99.90;;;;;;5034532;28;20472;-84
2023/09/19 02:29:45;;;;;;;2.40;2.20;;;20.40;99.90;;;;;;5034799;28;20482;-81
2023/09/19 02:32:12;;;;;;;2.77;2.57;;;20.40;99.90;;;;;;5033958;28;20472;-84
2023/09/19 02:34:39;;;;;;;3.13;2.83;;;20.40;99.90;;;;;;5033988;28;20567;-84
2023/09/19 02:37:08;;;;;;;3.63;2.57;;;20.40;99.90;;;;;;5034124;28;20472;-84
2023/09/19 02:39:59;;;;;;;2.87;2.13;;;20.40;99.90;;;;;;5034428;28;21024;-81
2023/09/19 02:42:30;;;;;;;2.73;2.20;;;20.40;99.90;;;;;;5032451;28;20997;-81
2023/09/19 02:44:57;;;;;;;2.80;2.30;;;20.30;99.90;;;;;;5034044;28;20538;-84
2023/09/19 02:47:24;;;;;;;2.53;2.33;;;20.30;99.90;;;;;;5029875;28;20474;-84
2023/09/19 02:49:51;;;;;;;7.93;4.93;;;20.30;99.90;;;;;;5033170;28;20476;-84
2023/09/19 02:52:24;;;;;;;16.30;12.63;;;20.30;99.90;;;;;;5033193;28;20566;-83
2023/09/19 02:54:54;;;;;;;8.97;7.80;;;20.30;99.90;;;;;;5033967;28;20483;-81
2023/09/19 02:57:21;;;;;;;4.83;3.50;;;20.30;99.90;;;;;;5033257;28;20503;-81
2023/09/19 02:59:48;;;;;;;14.53;9.87;;;20.30;99.90;;;;;;5033967;28;20468;-84
2023/09/19 03:02:15;;;;;;;3.80;3.47;;;20.30;99.90;;;;;;5034032;28;20455;-83
2023/09/19 03:04:42;;;;;;;3.87;2.87;;;20.30;99.90;;;;;;5034082;28;20543;-81
2023/09/19 03:07:11;;;;;;;3.20;2.90;;;20.30;99.90;;;;;;5033584;28;20499;-81
2023/09/19 03:09:40;;;;;;;4.03;2.70;;;20.20;99.90;;;;;;5034526;28;20602;-81
2023/09/19 03:12:26;;;;;;;4.43;3.33;;;20.20;99.90;;;;;;5033638;28;20512;-85
2023/09/19 03:14:53;;;;;;;8.77;7.73;;;20.20;99.90;;;;;;5033825;28;20495;-83
2023/09/19 03:17:21;;;;;;;9.33;8.37;;;20.20;99.90;;;;;;5034112;28;20472;-83
2023/09/19 03:19:48;;;;;;;7.33;5.80;;;20.20;99.90;;;;;;5023544;28;20534;-80
2023/09/19 03:22:16;;;;;;;8.30;6.97;;;20.20;99.90;;;;;;5033844;28;20472;-81
2023/09/19 03:24:44;;;;;;;19.90;17.43;;;20.20;99.90;;;;;;5033332;28;20559;-83
2023/09/19 03:27:12;;;;;;;9.13;7.60;;;20.20;99.90;;;;;;5034371;28;20464;-83
2023/09/19 03:29:41;;;;;;;6.97;5.70;;;20.20;99.90;;;;;;5033443;28;20478;-84
2023/09/19 03:32:09;;;;;;;10.47;7.50;;;20.20;99.90;;;;;;5033775;28;20541;-81
2023/09/19 03:34:37;;;;;;;7.03;6.30;;;20.20;99.90;;;;;;5032604;28;20468;-82
2023/09/19 03:37:04;;;;;;;4.50;4.10;;;20.30;99.90;;;;;;5034173;28;20947;-84
2023/09/19 03:39:31;;;;;;;4.07;3.30;;;20.30;99.90;;;;;;5033334;28;20974;-85
2023/09/19 03:42:00;;;;;;;3.93;3.20;;;20.30;99.90;;;;;;5034576;28;20556;-82
2023/09/19 03:44:27;;;;;;;11.20;8.53;;;20.30;99.90;;;;;;5033662;28;20464;-84
2023/09/19 03:46:55;;;;;;;11.97;9.93;;;20.30;99.90;;;;;;5032648;28;20812;-84
2023/09/19 03:49:22;;;;;;;16.77;10.90;;;20.20;99.90;;;;;;5033866;28;20471;-84
2023/09/19 03:51:49;;;;;;;7.83;7.03;;;20.20;99.90;;;;;;5033515;28;20472;-85
2023/09/19 03:54:19;;;;;;;6.30;5.23;;;20.20;99.90;;;;;;5033206;28;20478;-82
2023/09/19 03:56:46;;;;;;;5.80;5.10;;;20.20;99.90;;;;;;5032905;28;20880;-84
2023/09/19 03:59:14;;;;;;;6.33;4.20;;;20.20;99.90;;;;;;5032981;28;20491;-81
2023/09/19 04:01:43;;;;;;;9.17;7.10;;;20.20;99.90;;;;;;5032898;28;20464;-81
2023/09/19 04:04:12;;;;;;;25.00;19.30;;;20.20;99.90;;;;;;5033371;28;20467;-85
2023/09/19 04:06:39;;;;;;;10.37;9.37;;;20.20;99.90;;;;;;5032857;28;21031;-85
2023/09/19 04:09:07;;;;;;;4.93;4.10;;;20.20;99.90;;;;;;5033514;28;20826;-85
2023/09/19 04:11:34;;;;;;;5.67;5.10;;;20.20;99.90;;;;;;5033099;28;20487;-84
2023/09/19 04:14:03;;;;;;;3.93;3.43;;;20.20;99.90;;;;;;5032310;28;20476;-81
2023/09/19 04:16:32;;;;;;;4.20;3.70;;;20.20;99.90;;;;;;5032963;28;20496;-82
2023/09/19 04:18:59;;;;;;;4.23;3.17;;;20.20;99.90;;;;;;5032500;28;20463;-81
2023/09/19 04:21:26;;;;;;;8.17;5.80;;;20.20;99.90;;;;;;5032838;28;20475;-81
2023/09/19 04:23:53;;;;;;;5.33;4.30;;;20.20;99.90;;;;;;5032477;28;20464;-82
2023/09/19 04:26:21;;;;;;;3.83;3.43;;;20.20;99.90;;;;;;5032761;28;20503;-81
2023/09/19 04:28:48;;;;;;;6.33;4.60;;;20.20;99.90;;;;;;5031526;28;20476;-82
2023/09/19 04:31:16;;;;;;;7.43;5.30;;;20.10;99.90;;;;;;5033393;28;20522;-82
2023/09/19 04:33:45;;;;;;;7.63;5.77;;;20.10;99.90;;;;;;5032382;28;20880;-81
2023/09/19 04:36:13;;;;;;;5.93;5.10;;;20.10;99.90;;;;;;5032531;28;20465;-82
2023/09/19 04:38:40;;;;;;;6.07;5.23;;;20.10;99.90;;;;;;5032521;28;20530;-81
2023/09/19 04:41:11;;;;;;;6.70;5.70;;;20.10;99.90;;;;;;5032863;28;20452;-82
2023/09/19 04:43:40;;;;;;;6.20;5.53;;;20.10;99.90;;;;;;5033210;28;20476;-82
2023/09/19 04:46:07;;;;;;;5.90;5.13;;;20.00;99.90;;;;;;5032577;28;20530;-81
2023/09/19 04:48:35;;;;;;;22.53;18.07;;;20.10;99.90;;;;;;5034425;28;20526;-82
2023/09/19 04:51:04;;;;;;;6.57;6.00;;;20.10;99.90;;;;;;5036940;28;20959;-82
2023/09/19 04:53:31;;;;;;;7.20;6.50;;;20.00;99.90;;;;;;5036250;28;20502;-81
2023/09/19 04:55:58;;;;;;;7.43;5.63;;;20.00;99.90;;;;;;5036120;28;20549;-81
2023/09/19 04:58:25;;;;;;;5.17;4.67;;;20.00;99.90;;;;;;5036924;28;20521;-82
2023/09/19 05:00:56;;;;;;;6.37;4.57;;;20.00;99.90;;;;;;5036238;28;20464;-84
2023/09/19 05:03:23;;;;;;;14.50;11.77;;;20.00;99.90;;;;;;5036890;28;20870;-82
2023/09/19 05:05:50;;;;;;;9.53;7.07;;;20.00;99.90;;;;;;5024169;28;20471;-84
2023/09/19 05:08:24;;;;;;;6.10;5.30;;;19.90;99.90;;;;;;5036458;28;20468;-82
2023/09/19 05:10:51;;;;;;;8.07;6.20;;;19.90;99.90;;;;;;5036171;28;20452;-81
2023/09/19 05:13:17;;;;;;;6.63;5.40;;;19.90;99.90;;;;;;5036562;28;20471;-85
2023/09/19 05:15:44;;;;;;;6.00;5.50;;;19.90;99.90;;;;;;5036199;28;20780;-82
2023/09/19 05:18:14;;;;;;;7.30;6.07;;;19.90;99.90;;;;;;5036432;28;20526;-82
2023/09/19 05:20:41;;;;;;;9.47;5.53;;;19.90;99.90;;;;;;5035868;28;20503;-82
2023/09/19 05:23:11;;;;;;;5.63;4.73;;;19.90;99.90;;;;;;5036210;28;20480;-82
2023/09/19 05:25:42;;;;;;;4.27;3.83;;;19.80;99.90;;;;;;5035987;28;20491;-81
2023/09/19 05:28:12;;;;;;;4.93;3.60;;;19.80;99.90;;;;;;5036916;28;20510;-81
2023/09/19 05:30:39;;;;;;;7.13;5.37;;;19.70;99.90;;;;;;5037459;28;20992;-81
2023/09/19 05:33:06;;;;;;;3.20;2.57;;;19.70;99.90;;;;;;5038068;28;20476;-82
2023/09/19 05:35:33;;;;;;;7.40;6.43;;;19.70;99.90;;;;;;5036106;28;20514;-81
2023/09/19 05:38:01;;;;;;;5.90;5.30;;;19.70;99.90;;;;;;5037133;28;20464;-81
2023/09/19 05:40:28;;;;;;;5.30;4.17;;;19.70;99.90;;;;;;5037073;28;20468;-81
2023/09/19 05:42:57;;;;;;;5.43;3.37;;;19.70;99.90;;;;;;5035991;28;20448;-81
2023/09/19 05:45:24;;;;;;;4.40;4.00;;;19.70;99.90;;;;;;5035753;28;20589;-83
2023/09/19 05:47:55;;;;;;;7.13;6.43;;;19.70;99.90;;;;;;5035246;28;20468;-81
2023/09/19 05:50:24;;;;;;;6.73;4.80;;;19.60;99.90;;;;;;5035784;28;20991;-81
2023/09/19 05:52:53;;;;;;;8.70;6.80;;;19.70;99.90;;;;;;5035073;28;20531;-81
2023/09/19 05:55:20;;;;;;;5.33;4.77;;;19.60;99.90;;;;;;5035497;28;20496;-82
2023/09/19 05:57:51;;;;;;;6.40;5.60;;;19.60;99.90;;;;;;5025124;28;20484;-81
2023/09/19 06:00:22;;;;;;;6.60;4.87;;;19.50;99.90;;;;;;5033956;28;20468;-81
2023/09/19 06:02:51;;;;;;;5.87;4.47;;;19.50;99.90;;;;;;5035491;28;20816;-81
2023/09/19 06:05:19;;;;;;;3.90;3.23;;;19.50;99.90;;;;;;5035843;28;20476;-82
2023/09/19 06:07:46;;;;;;;4.90;4.13;;;19.50;99.90;;;;;;5034765;28;20472;-81
2023/09/19 06:10:14;;;;;;;6.20;5.60;;;19.60;99.90;;;;;;5035598;28;20459;-82
2023/09/19 06:12:43;;;;;;;2.87;2.67;;;19.60;99.90;;;;;;5035212;28;20792;-82
2023/09/19 06:15:15;;;;;;;4.77;3.67;;;19.60;99.90;;;;;;5035331;28;20472;-82
2023/09/19 06:17:43;;;;;;;4.90;3.73;;;19.60;99.90;;;;;;5035172;28;20471;-82
2023/09/19 06:20:14;;;;;;;3.80;3.10;;;19.60;99.90;;;;;;5024721;28;20571;-82
2023/09/19 06:22:42;;;;;;;6.70;2.50;;;19.70;99.90;;;;;;5034650;28;20475;-82
2023/09/19 06:25:19;;;;;;;3.53;3.07;;;19.70;99.90;;;;;;5034523;28;20491;-82
2023/09/19 06:27:46;;;;;;;5.10;4.33;;;19.70;99.90;;;;;;5034045;28;20950;-82
2023/09/19 06:30:14;;;;;;;12.90;9.30;;;19.70;99.90;;;;;;5034981;28;20548;-82
2023/09/19 06:32:45;;;;;;;4.53;4.03;;;19.60;99.90;;;;;;5034415;28;20476;-81
2023/09/19 06:35:16;;;;;;;2.63;2.43;;;19.70;99.90;;;;;;5034687;28;20464;-81
2023/09/19 06:37:43;;;;;;;4.13;2.50;;;19.70;99.90;;;;;;5034644;28;20804;-84
2023/09/19 06:40:13;;;;;;;5.23;3.80;;;19.70;99.90;;;;;;5035136;28;20503;-84
2023/09/19 06:42:42;;;;;;;7.33;5.53;;;19.80;99.90;;;;;;5034618;28;20511;-83
2023/09/19 06:45:11;;;;;;;4.40;4.00;;;19.80;99.90;;;;;;5034056;28;20483;-81
2023/09/19 06:47:38;;;;;;;5.23;4.47;;;19.90;99.90;;;;;;5034594;28;20503;-85
2023/09/19 06:50:12;;;;;;;4.80;3.10;;;19.80;99.90;;;;;;5034345;28;21266;-84
2023/09/19 06:52:39;;;;;;;7.17;3.20;;;19.90;99.90;;;;;;5034550;28;20559;-83
2023/09/19 06:55:07;;;;;;;5.07;4.40;;;19.90;99.90;;;;;;5034031;28;20460;-85
2023/09/19 06:57:34;;;;;;;5.70;3.80;;;19.90;99.90;;;;;;5034742;28;20511;-84
2023/09/19 07:00:04;;;;;;;5.30;3.07;;;19.90;99.90;;;;;;5034165;28;20482;-84
2023/09/19 07:02:31;;;;;;;5.30;3.53;;;20.00;99.90;;;;;;5034687;28;20479;-84
2023/09/19 07:04:58;;;;;;;10.70;5.53;;;20.00;99.90;;;;;;5034342;28;20483;-84
2023/09/19 07:07:29;;;;;;;11.60;10.43;;;20.10;99.90;;;;;;5034684;28;20472;-84
2023/09/19 07:09:56;;;;;;;7.20;4.40;;;20.20;99.90;;;;;;5034063;28;20503;-84
2023/09/19 07:12:23;;;;;;;4.60;3.67;;;20.30;99.90;;;;;;5034133;28;20496;-84
2023/09/19 07:14:50;;;;;;;15.90;9.50;;;20.40;99.90;;;;;;5033748;28;20496;-84
2023/09/19 07:17:21;;;;;;;6.53;3.23;;;20.50;99.90;;;;;;5034444;28;20499;-84
2023/09/19 07:19:49;;;;;;;9.97;3.90;;;20.60;99.90;;;;;;5034113;28;20981;-84
2023/09/19 07:22:16;;;;;;;3.60;2.13;;;20.60;99.90;;;;;;5034673;28;20539;-84
2023/09/19 07:24:44;;;;;;;3.53;3.23;;;20.60;99.90;;;;;;5034481;28;20962;-85
2023/09/19 07:27:11;;;;;;;5.40;4.20;;;20.70;99.90;;;;;;5034161;28;20483;-84
2023/09/19 07:29:39;;;;;;;4.13;2.90;;;20.80;99.90;;;;;;5034772;28;20472;-84
2023/09/19 07:32:10;;;;;;;5.00;3.37;;;20.90;99.90;;;;;;5033794;28;20472;-84
2023/09/19 07:34:38;;;;;;;6.10;3.90;;;20.90;99.90;;;;;;5034250;28;20472;-84
2023/09/19 07:37:06;;;;;;;10.57;6.87;;;20.90;99.90;;;;;;5033920;28;20499;-84
2023/09/19 07:39:33;;;;;;;6.23;3.80;;;20.90;99.90;;;;;;5033989;28;20472;-84
2023/09/19 07:42:01;;;;;;;3.13;2.63;;;20.90;99.90;;;;;;5033801;28;20478;-84
2023/09/19 07:44:28;;;;;;;3.37;3.17;;;21.00;99.90;;;;;;5034262;28;20506;-85
2023/09/19 07:46:56;;;;;;;4.17;3.77;;;21.00;99.90;;;;;;5033564;28;20961;-85
2023/09/19 07:49:25;;;;;;;12.57;10.60;;;21.10;99.90;;;;;;5034362;28;20468;-84
2023/09/19 07:51:54;;;;;;;6.50;3.07;;;21.10;99.90;;;;;;5034082;28;20522;-82
2023/09/19 07:54:21;;;;;;;4.17;3.53;;;21.10;99.90;;;;;;5034385;28;20476;-82
2023/09/19 07:56:48;;;;;;;4.43;3.33;;;21.20;99.90;;;;;;5034685;28;20673;-81
2023/09/19 07:59:17;;;;;;;6.83;6.23;;;21.20;99.90;;;;;;5034244;28;20487;-81
2023/09/19 08:01:44;;;;;;;10.60;8.50;;;21.20;99.90;;;;;;5036503;28;20810;-81
2023/09/19 08:04:12;;;;;;;4.10;3.70;;;21.30;99.90;;;;;;5040693;28;20490;-81
2023/09/19 08:06:39;;;;;;;6.70;4.60;;;21.30;99.90;;;;;;5044869;28;20464;-80
2023/09/19 08:09:10;;;;;;;7.37;5.70;;;21.40;99.90;;;;;;5042532;28;20491;-81
2023/09/19 08:11:37;;;;;;;5.60;4.50;;;21.40;99.90;;;;;;5041817;28;20464;-83
2023/09/19 08:14:05;;;;;;;8.70;6.13;;;21.50;99.90;;;;;;5043090;28;20476;-81
2023/09/19 08:16:33;;;;;;;5.67;3.97;;;21.50;99.90;;;;;;5042313;28;20531;-81
2023/09/19 08:19:00;;;;;;;8.00;4.30;;;21.50;99.90;;;;;;5038326;28;20526;-81
2023/09/19 08:21:29;;;;;;;6.90;5.60;;;21.50;99.90;;;;;;5037439;28;20468;-81
2023/09/19 08:23:57;;;;;;;8.90;7.00;;;21.50;99.90;;;;;;5043144;28;20475;-81
2023/09/19 08:26:24;;;;;;;6.57;4.13;;;21.50;99.90;;;;;;5042600;28;20459;-80
2023/09/19 08:28:53;;;;;;;7.13;6.10;;;21.50;99.90;;;;;;5043085;28;20491;-80
2023/09/19 08:31:20;;;;;;;10.00;6.37;;;21.50;99.90;;;;;;5044358;28;20460;-80
2023/09/19 08:33:49;;;;;;;12.63;8.30;;;21.50;99.90;;;;;;5045266;28;20480;-81
2023/09/19 08:36:16;;;;;;;9.47;8.40;;;21.50;99.90;;;;;;5048934;28;20472;-80
2023/09/19 08:38:45;;;;;;;10.10;8.23;;;21.50;99.90;;;;;;5048992;28;20472;-81
2023/09/19 08:41:12;;;;;;;8.93;4.50;;;21.50;99.90;;;;;;5044917;28;20475;-81
2023/09/19 08:43:39;;;;;;;6.00;4.57;;;21.40;99.90;;;;;;5044949;28;20472;-82
2023/09/19 08:46:14;;;;;;;8.80;6.63;;;21.40;99.90;;;;;;5045666;28;20534;-81
2023/09/19 08:48:48;;;;;;;5.57;5.07;;;21.40;99.90;;;;;;5043487;28;20471;-84
2023/09/19 08:51:23;;;;;;;6.60;4.97;;;21.40;99.90;;;;;;5040234;28;20464;-80
2023/09/19 08:53:54;;;;;;;4.00;3.57;;;21.40;99.90;;;;;;5043155;28;20476;-80
2023/09/19 08:56:39;;;;;;;5.83;3.83;;;21.40;99.90;;;;;;5043230;28;20452;-80
2023/09/19 08:59:11;;;;;;;4.10;3.27;;;21.30;99.90;;;;;;5039190;28;20549;-80
2023/09/19 09:01:41;;;;;;;11.67;4.90;;;21.30;99.90;;;;;;5036749;28;20460;-80
2023/09/19 09:04:12;;;;;;;5.30;4.10;;;21.30;99.90;;;;;;5035387;28;20861;-84
2023/09/19 09:06:43;;;;;;;6.33;4.10;;;21.30;99.90;;;;;;5035235;28;20479;-80
2023/09/19 09:09:10;;;;;;;6.60;3.17;;;21.30;99.90;;;;;;5034189;28;20472;-83
2023/09/19 09:11:40;;;;;;;7.90;3.67;;;21.30;99.90;;;;;;5036545;28;20503;-84
2023/09/19 09:14:08;;;;;;;6.73;3.67;;;21.30;99.90;;;;;;5041992;28;20527;-84
2023/09/19 09:16:38;;;;;;;3.77;3.40;;;21.30;99.90;;;;;;5048400;28;20460;-84
2023/09/19 09:19:06;;;;;;;9.20;4.20;;;21.30;99.90;;;;;;5039485;28;20526;-82
2023/09/19 09:21:36;;;;;;;7.60;4.30;;;21.30;99.90;;;;;;5034051;28;20459;-84
2023/09/19 09:24:33;;;;;;;4.40;4.00;;;21.30;99.90;;;;;;5033636;28;20476;-82
2023/09/19 09:27:02;;;;;;;5.83;4.40;;;21.40;99.90;;;;;;5033636;28;20973;-81
2023/09/19 09:29:49;;;;;;;4.93;3.30;;;21.30;99.90;;;;;;5034075;28;20488;-81
2023/09/19 09:32:20;;;;;;;7.03;3.67;;;21.40;99.90;;;;;;5035475;28;20460;-81
2023/09/19 09:34:50;;;;;;;5.50;3.30;;;21.40;99.90;;;;;;5038527;28;20476;-81
2023/09/19 09:37:19;;;;;;;4.97;3.40;;;21.40;99.90;;;;;;5039391;28;20482;-83
2023/09/19 09:39:56;;;;;;;4.90;3.47;;;21.50;99.90;;;;;;5039653;28;20480;-82
2023/09/19 09:42:35;;;;;;;6.03;4.00;;;21.50;99.90;;;;;;5037668;28;20476;-84
2023/09/19 09:45:15;;;;;;;4.50;2.83;;;21.60;99.90;;;;;;5034711;28;20530;-84
2023/09/19 09:47:49;;;;;;;3.77;3.30;;;21.60;99.90;;;;;;5037036;28;20479;-84
2023/09/19 09:50:44;;;;;;;5.07;3.83;;;21.70;99.90;;;;;;5035440;28;20798;-81
2023/09/19 09:53:37;;;;;;;4.23;3.83;;;21.70;99.90;;;;;;5026409;28;20464;-83
2023/09/19 09:56:07;;;;;;;5.93;4.10;;;21.70;99.90;;;;;;5035642;28;20479;-83
2023/09/19 09:58:35;;;;;;;8.77;3.40;;;21.70;99.90;;;;;;5033606;28;20471;-83
2023/09/19 10:01:08;;;;;;;9.30;6.33;;;21.70;99.90;;;;;;5035724;28;20499;-82
2023/09/19 10:03:41;;;;;;;9.30;5.37;;;21.70;99.90;;;;;;5035437;28;20483;-84
2023/09/19 10:06:25;;;;;;;6.90;4.27;;;21.70;99.90;;;;;;5034484;28;20468;-82
2023/09/19 10:09:10;;;;;;;9.17;4.87;;;21.60;99.90;;;;;;5025719;28;20476;-82
2023/09/19 10:11:46;;;;;;;4.83;4.30;;;21.60;99.90;;;;;;5031355;28;20989;-81
2023/09/19 10:14:15;;;;;;;6.10;4.30;;;21.60;99.90;;;;;;5034861;28;20610;-81
2023/09/19 10:16:47;;;;;;;7.07;4.40;;;21.60;99.90;;;;;;5031048;28;20504;-81
2023/09/19 10:19:20;;;;;;;4.20;3.80;;;21.70;99.90;;;;;;5034933;28;20798;-82
2023/09/19 10:21:55;;;;;;;7.90;5.20;;;21.70;99.90;;;;;;5035533;28;20476;-82
2023/09/19 10:24:26;;;;;;;3.83;2.90;;;21.80;99.90;;;;;;5030696;28;20466;-84
2023/09/19 10:27:00;;;;;;;4.43;3.80;;;21.80;99.90;;;;;;5035489;28;20872;-84
2023/09/19 10:29:31;;;;;;;6.20;4.17;;;21.90;99.90;;;;;;5015233;28;20589;-84
2023/09/19 10:32:00;;;;;;;6.30;4.57;;;21.90;99.90;;;;;;5015331;28;20845;-81
2023/09/19 10:34:42;;;;;;;7.27;5.23;;;21.90;99.90;;;;;;5033868;28;20480;-83
2023/09/19 10:37:18;;;;;;;8.27;5.47;;;21.90;99.90;;;;;;5035125;28;20510;-84
2023/09/19 10:39:48;;;;;;;7.03;3.70;;;21.90;99.90;;;;;;5035908;28;20828;-84
2023/09/19 10:42:29;;;;;;;4.90;4.40;;;22.00;99.90;;;;;;5029874;28;20456;-84
2023/09/19 10:44:59;;;;;;;5.83;4.20;;;22.00;99.90;;;;;;5033506;28;20555;-85
2023/09/19 10:47:26;;;;;;;6.00;3.60;;;22.10;99.90;;;;;;5034474;28;20551;-81
2023/09/19 10:49:54;;;;;;;7.33;4.20;;;22.10;99.70;;;;;;5034857;28;20503;-81
2023/09/19 10:52:25;;;;;;;8.20;3.73;;;22.10;99.40;;;;;;5032560;28;20517;-82
2023/09/19 10:54:59;;;;;;;6.00;3.37;;;22.00;99.00;;;;;;5016709;28;20553;-81
2023/09/19 10:57:28;;;;;;;5.23;3.60;;;22.00;98.70;;;;;;5033109;28;20462;-79
2023/09/19 11:03:19;;;;;;;4.47;4.00;;;21.90;98.60;;;;;;5033672;28;20464;-83
2023/09/19 11:06:09;;;;;;;6.30;4.03;;;21.90;98.00;;;;;;5034260;28;20479;-83
2023/09/19 11:09:07;;;;;;;5.00;3.07;;;21.90;97.50;;;;;;5018431;28;20527;-83
2023/09/19 11:11:50;;;;;;;4.67;3.67;;;21.90;97.50;;;;;;5014389;28;20553;-81
2023/09/19 11:14:43;;;;;;;6.43;2.50;;;21.90;97.40;;;;;;5031601;28;20795;-80
2023/09/19 11:17:33;;;;;;;4.07;2.87;;;22.00;97.10;;;;;;5015144;28;20499;-81
2023/09/19 11:20:35;;;;;;;4.00;2.80;;;22.00;97.50;;;;;;5014126;28;20479;-83
2023/09/19 11:26:43;;;;;;;4.40;2.60;;;22.10;96.90;;;;;;5022840;28;20455;-80
2023/09/19 11:29:29;;;;;;;4.20;2.50;;;22.10;96.50;;;;;;5034821;28;20484;-83
2023/09/19 11:31:59;;;;;;;5.00;2.70;;;22.10;96.10;;;;;;5014256;28;20465;-81
2023/09/19 11:34:50;;;;;;;4.27;2.90;;;22.20;96.30;;;;;;5015685;28;20479;-83
2023/09/19 11:38:16;;;;;;;5.47;2.43;;;22.20;96.20;;;;;;5014354;28;20457;-83
2023/09/19 11:41:10;;;;;;;5.00;3.03;;;22.20;96.50;;;;;;5014848;28;20465;-84
2023/09/19 11:43:41;;;;;;;6.20;3.30;;;22.30;97.00;;;;;;5014178;28;20552;-84
2023/09/19 11:46:09;;;;;;;4.43;3.13;;;22.30;96.40;;;;;;5014042;28;20477;-81
2023/09/19 11:48:56;;;;;;;5.80;2.50;;;22.40;96.00;;;;;;5014263;28;20477;-82
2023/09/19 11:51:29;;;;;;;8.43;4.37;;;22.40;95.60;;;;;;5003437;28;20488;-84
2023/09/19 11:53:59;;;;;;;7.43;4.00;;;22.40;95.00;;;;;;5000574;28;20485;-84
2023/09/19 11:56:40;;;;;;;6.47;3.20;;;22.40;95.20;;;;;;5018488;28;20491;-81
2023/09/19 11:59:08;;;;;;;6.40;2.70;;;22.30;95.00;;;;;;5012805;28;20472;-81
2023/09/19 12:01:40;;;;;;;4.33;2.83;;;22.30;95.30;;;;;;5014110;28;20461;-80
2023/09/19 12:04:11;;;;;;;6.80;4.40;;;22.40;95.20;;;;;;5012745;28;20469;-81
2023/09/19 12:06:41;;;;;;;4.30;3.33;;;22.40;95.30;;;;;;5013781;28;20508;-80
2023/09/19 12:09:16;;;;;;;3.63;2.97;;;22.50;95.20;;;;;;5012717;28;20486;-80
2023/09/19 12:11:45;;;;;;;7.10;3.03;;;22.50;95.20;;;;;;5004482;28;20483;-82
2023/09/19 12:14:12;;;;;;;5.30;2.60;;;22.50;94.90;;;;;;5002607;28;20535;-83
2023/09/19 12:16:55;;;;;;;5.97;3.70;;;22.60;94.40;;;;;;5029321;28;20474;-80
2023/09/19 12:19:23;;;;;;;5.13;3.67;;;22.50;94.50;;;;;;5032367;28;20555;-81
2023/09/19 12:22:04;;;;;;;8.30;3.60;;;22.50;94.90;;;;;;5033076;28;20476;-81
2023/09/19 12:24:31;;;;;;;3.87;2.80;;;22.50;93.80;;;;;;5032780;28;20471;-81
2023/09/19 12:27:06;;;;;;;3.37;3.07;;;22.50;93.80;;;;;;5015856;28;20560;-81
2023/09/19 12:29:42;;;;;;;2.27;2.07;;;22.50;93.70;;;;;;5023783;28;20447;-81
2023/09/19 12:32:11;;;;;;;4.00;2.30;;;22.50;93.00;;;;;;5032381;28;20460;-80
2023/09/19 12:34:42;;;;;;;4.30;3.07;;;22.50;92.60;;;;;;5033071;28;20459;-83
2023/09/19 12:37:15;;;;;;;11.03;2.97;;;22.50;92.80;;;;;;5023704;28;20456;-80
2023/09/19 12:39:44;;;;;;;4.40;3.30;;;22.40;92.70;;;;;;5033037;28;20452;-83
2023/09/19 12:42:13;;;;;;;5.17;2.70;;;22.40;92.70;;;;;;5032031;28;20479;-82
2023/09/19 12:44:44;;;;;;;6.00;2.30;;;22.40;92.90;;;;;;5032145;28;20452;-82
2023/09/19 12:47:15;;;;;;;6.10;2.80;;;22.40;93.00;;;;;;5033819;28;20468;-83
2023/09/19 12:50:13;;;;;;;4.50;2.63;;;22.50;93.30;;;;;;5032620;28;20456;-81
2023/09/19 12:52:41;;;;;;;4.40;2.27;;;22.60;93.50;;;;;;5018019;28;20458;-82
2023/09/19 12:55:09;;;;;;;3.47;2.77;;;22.60;93.20;;;;;;5013143;28;20832;-81
2023/09/19 12:57:36;;;;;;;3.70;2.23;;;22.70;93.10;;;;;;5023830;28;20476;-83
2023/09/19 13:00:07;;;;;;;3.60;2.10;;;22.70;93.10;;;;;;5023284;28;20469;-83
2023/09/19 13:02:36;;;;;;;3.80;2.80;;;22.70;93.00;;;;;;5013315;28;20544;-81
2023/09/19 13:05:06;;;;;;;7.47;3.93;;;22.80;92.80;;;;;;5013089;28;20488;-82
2023/09/19 13:07:47;;;;;;;6.27;3.00;;;22.80;92.70;;;;;;5010206;28;20465;-83
2023/09/19 13:10:20;;;;;;;3.40;2.20;;;22.80;92.60;;;;;;5017604;28;20555;-83
2023/09/19 13:12:47;;;;;;;5.40;2.77;;;22.80;92.20;;;;;;5017047;28;20449;-81